Startpagina
METAR-TAF:

METAR-TAF

Vliegvelden :

Barquisimeto, Venezuela

breedte: 10-04N, lengte: 069-19W, hoogte: 613 m

Actueel weer

Dit bericht is 47 minuten geleden gemaakt, om 19:02 UTC
Wind 11 kt uit het westen
Temperatuur 32°C
Vochtigheid 43%
Druk 1011 hPa

METAR: SVBM 191902Z AUTO 27011KT NCD 32/18 Q1011

Tijdstip: 15:49 (19:49 UTC)

Verwachting

Dit bericht is 29 uur en het 32 minuten geleden gemaakt, om 14:17 UTC
Verwachting geldig van 19 om 00 UTC tot 20 om 00 UTC
Wind 7 kt uit het oostnoordoosten
Zicht: 8000 m
Weinig wolken op 1300 ft
Gebroken wolken op 7000 ft
nevel
Wijzigt naar
van 18 om 14 UTC tot 18 om 18 UTC
Wind 10 kt uit het oosten
Zicht: 7000 m
Weinig wolken op 1300 ft, Cumulonimbus.
Gebroken wolken op 7000 ft
onweer in de omgeving, motregen

TAF: SVBM 181417Z 1900/2000 07007KT 8000 BR FEW013 BKN070 TX33/1918Z TN22/2008 BECMG 1814/1818 10010KT 7000 VCTSDZ FEW013CB BKN070

Waarnemingen en weersverwachtingen van meer dan 4000 vliegvelden (METAR en TAF).

De beschikbare stations zijn de gele en rode punten op de kaart.

Ga met uw muis naar het station om de naam te zien.

Klik dan om waarnemingen en weersverwachtingen te zien.

kaart wijzigen: klik op de groene knoppen met een zwart kruis om in te zoomen, op de groene knop met een streepje om uit te zoomen of op de groene pijlen voor aangrenzende kaarten.


METAR-TAF: